sensor_id;sensor_type;location;lat;lon;timestamp;pressure;altitude;pressure_sealevel;temperature;humidity
1926;BME280;964;42.606;23.588;2022-07-06T00:00:20;94455.44;;;33.40;44.00
1926;BME280;964;42.606;23.588;2022-07-06T00:02:47;94472.13;;;34.20;42.25
1926;BME280;964;42.606;23.588;2022-07-06T00:05:14;94482.00;;;36.09;38.57
1926;BME280;964;42.606;23.588;2022-07-06T00:07:40;94474.03;;;36.49;38.39
1926;BME280;964;42.606;23.588;2022-07-06T00:10:07;94462.69;;;37.46;36.92
1926;BME280;964;42.606;23.588;2022-07-06T00:12:34;94468.63;;;35.89;39.45
1926;BME280;964;42.606;23.588;2022-07-06T00:15:05;94453.28;;;37.04;38.11
1926;BME280;964;42.606;23.588;2022-07-06T00:17:31;94453.09;;;37.33;37.33
1926;BME280;964;42.606;23.588;2022-07-06T00:19:58;94469.00;;;37.27;37.33
1926;BME280;964;42.606;23.588;2022-07-06T00:22:25;94470.84;;;37.06;38.18
1926;BME280;964;42.606;23.588;2022-07-06T00:24:52;94460.94;;;37.29;36.89
1926;BME280;964;42.606;23.588;2022-07-06T00:27:18;94450.84;;;37.32;37.20
1926;BME280;964;42.606;23.588;2022-07-06T00:29:45;94436.00;;;37.16;37.03
1926;BME280;964;42.606;23.588;2022-07-06T00:32:13;94446.34;;;36.97;37.66
1926;BME280;964;42.606;23.588;2022-07-06T00:34:40;94441.97;;;37.20;37.32
1926;BME280;964;42.606;23.588;2022-07-06T00:37:07;94437.28;;;37.47;36.99
1926;BME280;964;42.606;23.588;2022-07-06T00:39:34;94457.28;;;36.84;38.80
1926;BME280;964;42.606;23.588;2022-07-06T00:42:01;94457.00;;;37.57;36.92
1926;BME280;964;42.606;23.588;2022-07-06T00:44:27;94459.41;;;37.47;36.58
1926;BME280;964;42.606;23.588;2022-07-06T00:46:54;94452.03;;;37.68;36.19
1926;BME280;964;42.606;23.588;2022-07-06T00:49:23;94454.28;;;37.70;36.00
1926;BME280;964;42.606;23.588;2022-07-06T00:52:07;94468.78;;;37.44;36.67
1926;BME280;964;42.606;23.588;2022-07-06T00:54:34;94462.22;;;37.28;37.00
1926;BME280;964;42.606;23.588;2022-07-06T00:57:03;94460.09;;;37.34;36.26
1926;BME280;964;42.606;23.588;2022-07-06T00:59:30;94454.84;;;36.99;36.91
1926;BME280;964;42.606;23.588;2022-07-06T01:01:57;94448.94;;;37.59;35.81
1926;BME280;964;42.606;23.588;2022-07-06T01:04:25;94457.69;;;36.75;37.37
1926;BME280;964;42.606;23.588;2022-07-06T01:06:53;94461.28;;;36.46;37.76
1926;BME280;964;42.606;23.588;2022-07-06T01:09:20;94459.69;;;36.31;38.26
1926;BME280;964;42.606;23.588;2022-07-06T01:11:47;94463.97;;;36.94;36.65
1926;BME280;964;42.606;23.588;2022-07-06T01:14:14;94459.47;;;36.91;36.55
1926;BME280;964;42.606;23.588;2022-07-06T01:16:41;94460.06;;;36.84;36.75
1926;BME280;964;42.606;23.588;2022-07-06T01:19:08;94447.38;;;36.94;36.62
1926;BME280;964;42.606;23.588;2022-07-06T01:21:37;94433.03;;;37.46;36.27
1926;BME280;964;42.606;23.588;2022-07-06T01:24:04;94442.16;;;37.09;36.38
1926;BME280;964;42.606;23.588;2022-07-06T01:26:31;94443.63;;;36.73;36.38
1926;BME280;964;42.606;23.588;2022-07-06T01:28:58;94443.59;;;36.35;37.48
1926;BME280;964;42.606;23.588;2022-07-06T01:31:26;94436.34;;;36.94;36.30
1926;BME280;964;42.606;23.588;2022-07-06T01:33:54;94440.69;;;36.47;36.89
1926;BME280;964;42.606;23.588;2022-07-06T01:36:21;94441.50;;;35.93;37.69
1926;BME280;964;42.606;23.588;2022-07-06T01:38:51;94441.38;;;36.53;36.50
1926;BME280;964;42.606;23.588;2022-07-06T01:41:18;94455.66;;;35.84;38.14
1926;BME280;964;42.606;23.588;2022-07-06T01:43:45;94451.19;;;35.81;37.92
1926;BME280;964;42.606;23.588;2022-07-06T01:46:12;94444.19;;;36.28;37.81
1926;BME280;964;42.606;23.588;2022-07-06T01:48:39;94445.19;;;36.25;37.57
1926;BME280;964;42.606;23.588;2022-07-06T01:51:06;94451.88;;;36.11;37.49
1926;BME280;964;42.606;23.588;2022-07-06T01:53:34;94458.16;;;35.82;38.44
1926;BME280;964;42.606;23.588;2022-07-06T01:56:02;94455.66;;;35.84;37.80
1926;BME280;964;42.606;23.588;2022-07-06T01:58:29;94451.91;;;35.52;38.06
1926;BME280;964;42.606;23.588;2022-07-06T02:00:56;94470.41;;;35.86;37.64
1926;BME280;964;42.606;23.588;2022-07-06T02:03:22;94469.63;;;35.92;37.92
1926;BME280;964;42.606;23.588;2022-07-06T02:05:49;94464.97;;;36.05;37.53
1926;BME280;964;42.606;23.588;2022-07-06T02:08:16;94463.97;;;36.51;36.91
1926;BME280;964;42.606;23.588;2022-07-06T02:10:43;94463.22;;;36.32;36.95
1926;BME280;964;42.606;23.588;2022-07-06T02:13:11;94460.44;;;36.32;37.21
1926;BME280;964;42.606;23.588;2022-07-06T02:15:37;94463.03;;;36.24;36.49
1926;BME280;964;42.606;23.588;2022-07-06T02:18:04;94475.16;;;36.40;36.07
1926;BME280;964;42.606;23.588;2022-07-06T02:20:31;94480.88;;;36.23;36.25
1926;BME280;964;42.606;23.588;2022-07-06T02:22:58;94483.56;;;36.29;36.69
1926;BME280;964;42.606;23.588;2022-07-06T02:25:24;94474.25;;;36.51;36.39
1926;BME280;964;42.606;23.588;2022-07-06T02:27:51;94482.22;;;36.60;35.88
1926;BME280;964;42.606;23.588;2022-07-06T02:30:19;94482.66;;;36.21;37.07
1926;BME280;964;42.606;23.588;2022-07-06T02:32:46;94484.78;;;35.79;37.40
1926;BME280;964;42.606;23.588;2022-07-06T02:35:13;94485.00;;;36.11;36.43
1926;BME280;964;42.606;23.588;2022-07-06T02:37:40;94480.25;;;36.55;36.05
1926;BME280;964;42.606;23.588;2022-07-06T02:40:07;94485.47;;;36.82;36.48
1926;BME280;964;42.606;23.588;2022-07-06T02:42:35;94475.91;;;37.02;35.47
1926;BME280;964;42.606;23.588;2022-07-06T02:45:03;94472.31;;;36.70;36.10
1926;BME280;964;42.606;23.588;2022-07-06T02:47:31;94490.28;;;36.33;36.94
1926;BME280;964;42.606;23.588;2022-07-06T02:49:58;94481.66;;;36.43;36.63
1926;BME280;964;42.606;23.588;2022-07-06T02:52:24;94485.75;;;36.79;35.94
1926;BME280;964;42.606;23.588;2022-07-06T02:54:51;94482.91;;;36.84;35.82
1926;BME280;964;42.606;23.588;2022-07-06T02:57:19;94476.03;;;36.91;35.77
1926;BME280;964;42.606;23.588;2022-07-06T02:59:45;94485.66;;;36.66;36.57
1926;BME280;964;42.606;23.588;2022-07-06T03:02:14;94480.31;;;36.92;36.08
1926;BME280;964;42.606;23.588;2022-07-06T03:04:43;94474.69;;;37.16;35.69
1926;BME280;964;42.606;23.588;2022-07-06T03:07:09;94487.88;;;37.10;36.27
1926;BME280;964;42.606;23.588;2022-07-06T03:09:36;94484.28;;;37.15;36.33
1926;BME280;964;42.606;23.588;2022-07-06T03:12:03;94477.09;;;37.25;36.34
1926;BME280;964;42.606;23.588;2022-07-06T03:14:30;94472.44;;;37.33;36.25
1926;BME280;964;42.606;23.588;2022-07-06T03:16:57;94483.50;;;36.96;36.41
1926;BME280;964;42.606;23.588;2022-07-06T03:19:24;94488.00;;;37.18;36.30
1926;BME280;964;42.606;23.588;2022-07-06T03:21:52;94478.59;;;37.26;35.74
1926;BME280;964;42.606;23.588;2022-07-06T03:24:18;94469.59;;;37.39;35.63
1926;BME280;964;42.606;23.588;2022-07-06T03:26:45;94464.97;;;37.28;35.49
1926;BME280;964;42.606;23.588;2022-07-06T03:29:12;94472.31;;;37.26;36.14
1926;BME280;964;42.606;23.588;2022-07-06T03:31:39;94473.06;;;37.26;35.83
1926;BME280;964;42.606;23.588;2022-07-06T03:34:06;94481.06;;;37.11;36.11
1926;BME280;964;42.606;23.588;2022-07-06T03:36:32;94487.56;;;37.14;36.29
1926;BME280;964;42.606;23.588;2022-07-06T03:39:00;94477.69;;;37.18;36.25
1926;BME280;964;42.606;23.588;2022-07-06T03:41:28;94487.66;;;37.08;35.61
1926;BME280;964;42.606;23.588;2022-07-06T03:43:54;94483.00;;;37.16;35.94
1926;BME280;964;42.606;23.588;2022-07-06T03:46:21;94499.81;;;37.18;35.96
1926;BME280;964;42.606;23.588;2022-07-06T03:48:48;94497.06;;;37.18;35.31
1926;BME280;964;42.606;23.588;2022-07-06T03:51:14;94500.25;;;37.22;35.78
1926;BME280;964;42.606;23.588;2022-07-06T03:53:41;94497.72;;;37.24;35.26
1926;BME280;964;42.606;23.588;2022-07-06T03:56:09;94508.75;;;36.87;36.40
1926;BME280;964;42.606;23.588;2022-07-06T03:58:54;94503.63;;;36.29;37.09
1926;BME280;964;42.606;23.588;2022-07-06T04:01:21;94505.22;;;35.95;37.97
1926;BME280;964;42.606;23.588;2022-07-06T04:03:48;94508.81;;;36.38;37.86
1926;BME280;964;42.606;23.588;2022-07-06T04:06:15;94500.75;;;36.65;36.82
1926;BME280;964;42.606;23.588;2022-07-06T04:08:41;94504.53;;;37.05;37.02
1926;BME280;964;42.606;23.588;2022-07-06T04:11:09;94505.19;;;37.29;36.22
1926;BME280;964;42.606;23.588;2022-07-06T04:13:36;94503.91;;;37.30;35.90
1926;BME280;964;42.606;23.588;2022-07-06T04:16:04;94502.94;;;37.09;36.92
1926;BME280;964;42.606;23.588;2022-07-06T04:18:31;94519.06;;;37.05;36.77
1926;BME280;964;42.606;23.588;2022-07-06T04:20:58;94506.69;;;37.30;35.94
1926;BME280;964;42.606;23.588;2022-07-06T04:23:25;94500.09;;;37.33;36.00
1926;BME280;964;42.606;23.588;2022-07-06T04:25:52;94498.59;;;37.51;35.46
1926;BME280;964;42.606;23.588;2022-07-06T04:28:20;94508.16;;;36.94;36.36
1926;BME280;964;42.606;23.588;2022-07-06T04:30:46;94513.09;;;37.01;35.84
1926;BME280;964;42.606;23.588;2022-07-06T04:33:13;94515.72;;;36.94;36.14
1926;BME280;964;42.606;23.588;2022-07-06T04:35:40;94517.25;;;36.89;36.34
1926;BME280;964;42.606;23.588;2022-07-06T04:38:07;94520.06;;;36.41;37.25
1926;BME280;964;42.606;23.588;2022-07-06T04:40:33;94526.41;;;36.35;37.59
1926;BME280;964;42.606;23.588;2022-07-06T04:43:00;94518.97;;;36.49;37.30
1926;BME280;964;42.606;23.588;2022-07-06T04:58:03;94539.03;;;36.25;38.25
1926;BME280;964;42.606;23.588;2022-07-06T05:00:30;94528.31;;;35.92;38.11
1926;BME280;964;42.606;23.588;2022-07-06T05:02:57;94540.53;;;36.26;37.12
1926;BME280;964;42.606;23.588;2022-07-06T05:05:24;94534.16;;;36.07;37.94
1926;BME280;964;42.606;23.588;2022-07-06T05:07:50;94541.97;;;35.38;39.21
1926;BME280;964;42.606;23.588;2022-07-06T05:10:17;94555.00;;;34.80;40.05
1926;BME280;964;42.606;23.588;2022-07-06T05:12:44;94560.47;;;35.43;39.38
1926;BME280;964;42.606;23.588;2022-07-06T05:15:12;94564.81;;;35.27;39.13
1926;BME280;964;42.606;23.588;2022-07-06T05:17:38;94570.88;;;35.20;39.27
1926;BME280;964;42.606;23.588;2022-07-06T05:20:06;94572.31;;;35.32;39.16
1926;BME280;964;42.606;23.588;2022-07-06T05:22:33;94567.94;;;35.54;38.53
1926;BME280;964;42.606;23.588;2022-07-06T05:25:00;94567.44;;;35.50;38.84
1926;BME280;964;42.606;23.588;2022-07-06T05:27:27;94574.38;;;35.26;39.04
1926;BME280;964;42.606;23.588;2022-07-06T05:29:54;94571.03;;;34.76;39.38
1926;BME280;964;42.606;23.588;2022-07-06T05:32:22;94591.63;;;34.64;38.96
1926;BME280;964;42.606;23.588;2022-07-06T05:34:49;94588.97;;;34.99;38.86
1926;BME280;964;42.606;23.588;2022-07-06T05:37:16;94585.09;;;34.56;39.83
1926;BME280;964;42.606;23.588;2022-07-06T05:39:43;94587.34;;;34.52;40.20
1926;BME280;964;42.606;23.588;2022-07-06T05:42:12;94584.81;;;34.76;39.29
1926;BME280;964;42.606;23.588;2022-07-06T05:44:39;94596.56;;;34.82;39.52
1926;BME280;964;42.606;23.588;2022-07-06T05:47:05;94593.03;;;34.87;39.23
1926;BME280;964;42.606;23.588;2022-07-06T05:49:51;94585.50;;;34.93;39.44
1926;BME280;964;42.606;23.588;2022-07-06T05:52:35;94590.00;;;34.96;39.37
1926;BME280;964;42.606;23.588;2022-07-06T05:55:03;94583.69;;;35.07;39.16
1926;BME280;964;42.606;23.588;2022-07-06T05:57:29;94589.91;;;34.22;40.35
1926;BME280;964;42.606;23.588;2022-07-06T05:59:56;94596.66;;;33.76;40.88
1926;BME280;964;42.606;23.588;2022-07-06T06:02:23;94596.13;;;33.67;40.88
1926;BME280;964;42.606;23.588;2022-07-06T06:04:51;94593.69;;;34.13;40.05
1926;BME280;964;42.606;23.588;2022-07-06T06:07:17;94586.38;;;34.10;40.13
1926;BME280;964;42.606;23.588;2022-07-06T06:09:44;94583.81;;;34.79;39.23
1926;BME280;964;42.606;23.588;2022-07-06T06:12:11;94586.59;;;34.68;39.06
1926;BME280;964;42.606;23.588;2022-07-06T06:14:37;94589.84;;;34.66;39.54
1926;BME280;964;42.606;23.588;2022-07-06T06:17:04;94588.16;;;34.35;39.25
1926;BME280;964;42.606;23.588;2022-07-06T06:19:34;94587.13;;;33.72;40.54
1926;BME280;964;42.606;23.588;2022-07-06T06:22:03;94591.16;;;33.93;39.84
1926;BME280;964;42.606;23.588;2022-07-06T06:24:30;94590.91;;;33.91;40.19
1926;BME280;964;42.606;23.588;2022-07-06T06:26:57;94595.63;;;33.85;40.10
1926;BME280;964;42.606;23.588;2022-07-06T06:29:24;94590.91;;;34.35;39.31
1926;BME280;964;42.606;23.588;2022-07-06T06:31:51;94591.84;;;34.55;39.16
1926;BME280;964;42.606;23.588;2022-07-06T06:34:18;94589.63;;;34.47;39.26
1926;BME280;964;42.606;23.588;2022-07-06T06:36:44;94578.59;;;34.47;39.30
1926;BME280;964;42.606;23.588;2022-07-06T06:39:13;94582.41;;;34.28;39.38
1926;BME280;964;42.606;23.588;2022-07-06T06:41:39;94576.66;;;33.98;39.83
1926;BME280;964;42.606;23.588;2022-07-06T06:44:06;94585.56;;;34.82;39.14
1926;BME280;964;42.606;23.588;2022-07-06T06:46:33;94581.63;;;34.50;39.09
1926;BME280;964;42.606;23.588;2022-07-06T06:48:59;94585.13;;;34.44;39.54
1926;BME280;964;42.606;23.588;2022-07-06T06:51:26;94580.94;;;35.12;38.22
1926;BME280;964;42.606;23.588;2022-07-06T06:53:53;94585.56;;;34.76;39.05
1926;BME280;964;42.606;23.588;2022-07-06T06:56:21;94580.41;;;34.06;39.86
1926;BME280;964;42.606;23.588;2022-07-06T06:58:47;94578.84;;;34.55;38.87
1926;BME280;964;42.606;23.588;2022-07-06T07:01:14;94575.69;;;35.03;38.67
1926;BME280;964;42.606;23.588;2022-07-06T07:03:41;94562.25;;;35.40;38.10
1926;BME280;964;42.606;23.588;2022-07-06T07:06:08;94569.97;;;35.48;38.12
1926;BME280;964;42.606;23.588;2022-07-06T07:08:34;94581.16;;;35.09;37.98
1926;BME280;964;42.606;23.588;2022-07-06T07:11:01;94572.19;;;35.55;37.79
1926;BME280;964;42.606;23.588;2022-07-06T07:13:29;94573.50;;;36.43;37.14
1926;BME280;964;42.606;23.588;2022-07-06T07:15:56;94564.44;;;35.88;37.13
1926;BME280;964;42.606;23.588;2022-07-06T07:18:22;94562.91;;;36.23;36.51
1926;BME280;964;42.606;23.588;2022-07-06T07:20:49;94566.84;;;37.00;36.13
1926;BME280;964;42.606;23.588;2022-07-06T07:23:16;94548.47;;;37.77;34.70
1926;BME280;964;42.606;23.588;2022-07-06T07:25:43;94555.34;;;37.71;34.85
1926;BME280;964;42.606;23.588;2022-07-06T07:28:10;94560.69;;;38.46;33.59
1926;BME280;964;42.606;23.588;2022-07-06T07:30:38;94551.28;;;37.59;33.89
1926;BME280;964;42.606;23.588;2022-07-06T07:33:05;94567.31;;;37.42;33.94
1926;BME280;964;42.606;23.588;2022-07-06T07:35:32;94557.28;;;36.82;34.63
1926;BME280;964;42.606;23.588;2022-07-06T07:37:59;94555.69;;;36.87;35.46
1926;BME280;964;42.606;23.588;2022-07-06T07:40:25;94561.22;;;37.11;34.76
1926;BME280;964;42.606;23.588;2022-07-06T07:42:52;94564.88;;;37.19;34.87
1926;BME280;964;42.606;23.588;2022-07-06T07:45:19;94557.44;;;36.42;35.66
1926;BME280;964;42.606;23.588;2022-07-06T07:47:47;94569.56;;;36.33;35.92
1926;BME280;964;42.606;23.588;2022-07-06T07:50:14;94559.94;;;36.21;34.93
1926;BME280;964;42.606;23.588;2022-07-06T07:52:41;94565.03;;;36.11;35.17
1926;BME280;964;42.606;23.588;2022-07-06T07:55:08;94557.44;;;36.90;34.08
1926;BME280;964;42.606;23.588;2022-07-06T07:57:35;94558.97;;;37.66;33.26
1926;BME280;964;42.606;23.588;2022-07-06T08:00:03;94559.88;;;37.37;33.39
1926;BME280;964;42.606;23.588;2022-07-06T08:02:31;94560.84;;;37.58;33.76
1926;BME280;964;42.606;23.588;2022-07-06T08:04:59;94558.56;;;37.75;34.04
1926;BME280;964;42.606;23.588;2022-07-06T08:07:25;94541.09;;;38.96;32.29
1926;BME280;964;42.606;23.588;2022-07-06T08:09:52;94541.09;;;38.57;32.30
1926;BME280;964;42.606;23.588;2022-07-06T08:12:19;94538.13;;;38.94;32.58
1926;BME280;964;42.606;23.588;2022-07-06T08:14:45;94544.09;;;38.72;32.03
1926;BME280;964;42.606;23.588;2022-07-06T08:17:12;94543.44;;;38.79;32.21
1926;BME280;964;42.606;23.588;2022-07-06T08:19:39;94541.78;;;39.70;30.57
1926;BME280;964;42.606;23.588;2022-07-06T08:22:07;94534.91;;;40.33;30.32
1926;BME280;964;42.606;23.588;2022-07-06T08:24:35;94536.06;;;39.55;31.18
1926;BME280;964;42.606;23.588;2022-07-06T08:27:02;94542.88;;;39.20;30.97
1926;BME280;964;42.606;23.588;2022-07-06T08:29:29;94541.78;;;39.36;31.27
1926;BME280;964;42.606;23.588;2022-07-06T08:31:56;94534.25;;;39.10;31.21
1926;BME280;964;42.606;23.588;2022-07-06T08:34:23;94542.25;;;38.74;31.37
1926;BME280;964;42.606;23.588;2022-07-06T08:36:49;94544.56;;;38.31;32.06
1926;BME280;964;42.606;23.588;2022-07-06T08:39:18;94549.50;;;38.78;32.00
1926;BME280;964;42.606;23.588;2022-07-06T08:41:44;94540.16;;;39.41;31.83
1926;BME280;964;42.606;23.588;2022-07-06T08:44:16;94531.94;;;39.01;31.65
1926;BME280;964;42.606;23.588;2022-07-06T08:46:44;94532.25;;;39.99;30.75
1926;BME280;964;42.606;23.588;2022-07-06T08:49:13;94532.06;;;40.18;30.36
1926;BME280;964;42.606;23.588;2022-07-06T08:51:41;94535.59;;;40.47;29.75
1926;BME280;964;42.606;23.588;2022-07-06T08:54:08;94528.78;;;40.84;28.66
1926;BME280;964;42.606;23.588;2022-07-06T08:56:39;94528.69;;;41.48;29.14
1926;BME280;964;42.606;23.588;2022-07-06T08:59:06;94527.19;;;40.68;28.72
1926;BME280;964;42.606;23.588;2022-07-06T09:01:35;94521.78;;;40.34;29.75
1926;BME280;964;42.606;23.588;2022-07-06T09:04:03;94527.13;;;40.88;28.49
1926;BME280;964;42.606;23.588;2022-07-06T09:06:31;94526.69;;;41.05;28.78
1926;BME280;964;42.606;23.588;2022-07-06T09:09:02;94529.75;;;40.58;29.75
1926;BME280;964;42.606;23.588;2022-07-06T09:11:31;94538.75;;;39.81;30.02
1926;BME280;964;42.606;23.588;2022-07-06T09:13:59;94526.16;;;41.22;28.05
1926;BME280;964;42.606;23.588;2022-07-06T09:16:28;94516.91;;;41.93;27.34
1926;BME280;964;42.606;23.588;2022-07-06T09:18:55;94511.69;;;42.42;26.75
1926;BME280;964;42.606;23.588;2022-07-06T09:21:23;94529.06;;;40.65;28.97
1926;BME280;964;42.606;23.588;2022-07-06T09:23:53;94523.38;;;41.22;28.65
1926;BME280;964;42.606;23.588;2022-07-06T09:26:21;94535.13;;;39.52;30.20
1926;BME280;964;42.606;23.588;2022-07-06T09:28:48;94530.38;;;39.60;30.76
1926;BME280;964;42.606;23.588;2022-07-06T09:31:16;94524.63;;;41.05;28.61
1926;BME280;964;42.606;23.588;2022-07-06T09:33:57;94522.41;;;41.63;28.31
1926;BME280;964;42.606;23.588;2022-07-06T09:36:39;94525.03;;;41.09;28.76
1926;BME280;964;42.606;23.588;2022-07-06T09:39:16;94516.34;;;42.25;27.28
1926;BME280;964;42.606;23.588;2022-07-06T09:41:44;94518.19;;;41.84;28.01
1926;BME280;964;42.606;23.588;2022-07-06T09:44:10;94518.72;;;41.83;27.89
1926;BME280;964;42.606;23.588;2022-07-06T09:46:40;94516.75;;;40.04;29.02
1926;BME280;964;42.606;23.588;2022-07-06T09:49:07;94518.41;;;39.86;29.74
1926;BME280;964;42.606;23.588;2022-07-06T09:51:36;94505.47;;;40.09;30.05
1926;BME280;964;42.606;23.588;2022-07-06T09:54:05;94503.09;;;41.49;28.17
1926;BME280;964;42.606;23.588;2022-07-06T09:56:37;94501.66;;;41.94;27.38
1926;BME280;964;42.606;23.588;2022-07-06T09:59:07;94478.03;;;43.11;25.87
1926;BME280;964;42.606;23.588;2022-07-06T10:01:35;94497.75;;;42.04;27.86
1926;BME280;964;42.606;23.588;2022-07-06T10:04:03;94503.03;;;41.34;27.58
1926;BME280;964;42.606;23.588;2022-07-06T10:06:31;94502.41;;;42.10;27.46
1926;BME280;964;42.606;23.588;2022-07-06T10:08:58;94472.19;;;42.91;27.09
1926;BME280;964;42.606;23.588;2022-07-06T10:11:26;94471.34;;;43.14;26.00
1926;BME280;964;42.606;23.588;2022-07-06T10:13:55;94493.13;;;41.99;28.04
1926;BME280;964;42.606;23.588;2022-07-06T10:16:22;94495.00;;;41.16;29.47
1926;BME280;964;42.606;23.588;2022-07-06T10:18:50;94491.63;;;42.14;28.23
1926;BME280;964;42.606;23.588;2022-07-06T10:21:21;94493.81;;;41.47;28.11
1926;BME280;964;42.606;23.588;2022-07-06T10:23:49;94492.88;;;41.44;27.74
1926;BME280;964;42.606;23.588;2022-07-06T10:26:17;94483.81;;;42.50;27.83
1926;BME280;964;42.606;23.588;2022-07-06T10:28:44;94481.81;;;41.82;28.00
1926;BME280;964;42.606;23.588;2022-07-06T10:31:13;94486.72;;;41.31;28.73
1926;BME280;964;42.606;23.588;2022-07-06T10:33:41;94491.91;;;41.34;28.08
1926;BME280;964;42.606;23.588;2022-07-06T10:36:09;94492.44;;;40.17;29.27
1926;BME280;964;42.606;23.588;2022-07-06T10:38:38;94491.25;;;40.62;29.50
1926;BME280;964;42.606;23.588;2022-07-06T10:41:06;94487.97;;;40.14;29.71
1926;BME280;964;42.606;23.588;2022-07-06T10:43:34;94490.94;;;40.73;29.49
1926;BME280;964;42.606;23.588;2022-07-06T10:46:08;94490.03;;;40.50;28.50
1926;BME280;964;42.606;23.588;2022-07-06T10:48:36;94488.16;;;41.32;27.89
1926;BME280;964;42.606;23.588;2022-07-06T10:51:03;94469.38;;;41.98;28.50
1926;BME280;964;42.606;23.588;2022-07-06T10:53:32;94475.63;;;41.61;27.81
1926;BME280;964;42.606;23.588;2022-07-06T10:56:04;94481.94;;;41.46;27.66
1926;BME280;964;42.606;23.588;2022-07-06T10:58:35;94485.19;;;40.14;29.65
1926;BME280;964;42.606;23.588;2022-07-06T11:01:02;94479.00;;;41.59;28.50
1926;BME280;964;42.606;23.588;2022-07-06T11:03:36;94484.06;;;41.18;28.58
1926;BME280;964;42.606;23.588;2022-07-06T11:06:06;94483.88;;;40.15;29.96
1926;BME280;964;42.606;23.588;2022-07-06T11:08:53;94488.22;;;40.03;29.78
1926;BME280;964;42.606;23.588;2022-07-06T11:11:24;94481.47;;;41.20;28.20
1926;BME280;964;42.606;23.588;2022-07-06T11:13:56;94471.03;;;42.01;27.28
1926;BME280;964;42.606;23.588;2022-07-06T11:16:26;94477.19;;;41.92;27.70
1926;BME280;964;42.606;23.588;2022-07-06T11:19:01;94476.03;;;41.73;28.00
1926;BME280;964;42.606;23.588;2022-07-06T11:21:34;94468.41;;;41.73;27.57
1926;BME280;964;42.606;23.588;2022-07-06T11:24:02;94470.22;;;42.69;26.76
1926;BME280;964;42.606;23.588;2022-07-06T11:26:31;94459.59;;;42.75;26.59
1926;BME280;964;42.606;23.588;2022-07-06T11:29:03;94468.97;;;41.56;27.32
1926;BME280;964;42.606;23.588;2022-07-06T11:31:30;94476.00;;;40.55;28.62
1926;BME280;964;42.606;23.588;2022-07-06T11:33:57;94474.25;;;40.73;27.52
1926;BME280;964;42.606;23.588;2022-07-06T11:36:23;94463.03;;;41.52;27.42
1926;BME280;964;42.606;23.588;2022-07-06T11:38:50;94463.31;;;41.19;27.10
1926;BME280;964;42.606;23.588;2022-07-06T11:41:18;94455.66;;;41.85;27.86
1926;BME280;964;42.606;23.588;2022-07-06T11:43:47;94467.09;;;41.51;27.01
1926;BME280;964;42.606;23.588;2022-07-06T11:46:26;94457.09;;;41.56;27.06
1926;BME280;964;42.606;23.588;2022-07-06T11:48:55;94451.53;;;41.94;27.11
1926;BME280;964;42.606;23.588;2022-07-06T11:51:23;94446.88;;;42.89;26.96
1926;BME280;964;42.606;23.588;2022-07-06T11:53:52;94447.06;;;42.14;26.74
1926;BME280;964;42.606;23.588;2022-07-06T11:56:20;94453.06;;;40.98;27.28
1926;BME280;964;42.606;23.588;2022-07-06T11:58:53;94448.19;;;40.91;27.11
1926;BME280;964;42.606;23.588;2022-07-06T12:01:21;94452.19;;;40.75;28.05
1926;BME280;964;42.606;23.588;2022-07-06T12:03:48;94436.31;;;41.72;26.31
1926;BME280;964;42.606;23.588;2022-07-06T12:06:17;94444.59;;;41.27;27.06
1926;BME280;964;42.606;23.588;2022-07-06T12:08:46;94449.53;;;40.05;28.79
1926;BME280;964;42.606;23.588;2022-07-06T12:11:21;94448.16;;;39.91;28.92
1926;BME280;964;42.606;23.588;2022-07-06T12:13:49;94452.81;;;39.55;29.34
1926;BME280;964;42.606;23.588;2022-07-06T12:16:18;94448.91;;;39.50;29.28
1926;BME280;964;42.606;23.588;2022-07-06T12:18:46;94451.59;;;39.43;29.34
1926;BME280;964;42.606;23.588;2022-07-06T12:21:15;94451.22;;;39.80;29.22
1926;BME280;964;42.606;23.588;2022-07-06T12:23:44;94456.16;;;40.23;28.75
1926;BME280;964;42.606;23.588;2022-07-06T12:26:13;94450.31;;;39.44;29.27
1926;BME280;964;42.606;23.588;2022-07-06T12:28:41;94451.97;;;39.60;29.11
1926;BME280;964;42.606;23.588;2022-07-06T12:31:08;94448.97;;;39.58;29.00
1926;BME280;964;42.606;23.588;2022-07-06T12:33:36;94448.84;;;41.13;28.56
1926;BME280;964;42.606;23.588;2022-07-06T12:36:13;94433.38;;;41.93;27.46
1926;BME280;964;42.606;23.588;2022-07-06T12:38:45;94431.50;;;42.03;25.90
1926;BME280;964;42.606;23.588;2022-07-06T12:41:27;94439.94;;;41.22;27.09
1926;BME280;964;42.606;23.588;2022-07-06T12:44:05;94438.75;;;41.83;26.78
1926;BME280;964;42.606;23.588;2022-07-06T12:46:34;94419.09;;;42.59;25.46
1926;BME280;964;42.606;23.588;2022-07-06T12:49:10;94428.50;;;42.08;25.55
1926;BME280;964;42.606;23.588;2022-07-06T12:54:28;94428.09;;;41.36;26.18
1926;BME280;964;42.606;23.588;2022-07-06T12:57:00;94428.13;;;41.44;26.37
1926;BME280;964;42.606;23.588;2022-07-06T12:59:27;94413.03;;;41.01;27.09
1926;BME280;964;42.606;23.588;2022-07-06T13:01:54;94412.94;;;41.83;26.56
1926;BME280;964;42.606;23.588;2022-07-06T13:04:24;94410.09;;;42.21;26.32
1926;BME280;964;42.606;23.588;2022-07-06T13:06:51;94428.69;;;41.50;26.14
1926;BME280;964;42.606;23.588;2022-07-06T13:09:19;94416.22;;;42.27;25.95
1926;BME280;964;42.606;23.588;2022-07-06T13:11:47;94409.81;;;42.64;25.19
1926;BME280;964;42.606;23.588;2022-07-06T13:14:13;94410.50;;;42.25;25.71
1926;BME280;964;42.606;23.588;2022-07-06T13:16:42;94414.41;;;42.06;25.81
1926;BME280;964;42.606;23.588;2022-07-06T13:19:09;94409.59;;;41.99;25.90
1926;BME280;964;42.606;23.588;2022-07-06T13:21:37;94416.25;;;41.51;26.48
1926;BME280;964;42.606;23.588;2022-07-06T13:24:04;94417.72;;;40.35;27.07
1926;BME280;964;42.606;23.588;2022-07-06T13:26:31;94409.88;;;40.18;27.53
1926;BME280;964;42.606;23.588;2022-07-06T13:28:59;94407.66;;;41.03;26.44
1926;BME280;964;42.606;23.588;2022-07-06T13:31:25;94407.09;;;40.97;26.86
1926;BME280;964;42.606;23.588;2022-07-06T13:33:52;94401.63;;;41.81;25.97
1926;BME280;964;42.606;23.588;2022-07-06T13:36:19;94393.94;;;42.27;25.89
1926;BME280;964;42.606;23.588;2022-07-06T13:38:47;94391.59;;;42.63;25.69
1926;BME280;964;42.606;23.588;2022-07-06T13:41:14;94390.25;;;42.79;26.00